Time;durP1;ratioP1;P1;durP2;ratioP2;P2;SDS_P1;SDS_P2;PMS_P1;PMS_P2;Temp;Humidity;BMP_temperature;BMP_pressure;BME280_temperature;BME280_humidity;BME280_pressure;Samples;Min_cycle;Max_cycle;Signal;HPM_P1;HPM_P2
2023/03/25 00:00:31;;;;;;;19.87;7.10;;;;;;;;;;5113493;28;20232;-80
2023/03/25 00:03:00;;;;;;;16.17;5.93;;;;;;;;;;5113516;28;20197;-81
2023/03/25 00:05:28;;;;;;;18.97;7.20;;;;;;;;;;5112834;28;20231;-81
2023/03/25 00:07:58;;;;;;;20.73;5.57;;;;;;;;;;5113301;28;20240;-81
2023/03/25 00:10:27;;;;;;;21.83;5.23;;;;;;;;;;5113541;28;20202;-81
2023/03/25 00:12:57;;;;;;;29.17;7.70;;;;;;;;;;5111917;28;20190;-81
2023/03/25 00:15:25;;;;;;;21.70;6.47;;;;;;;;;;5113070;28;20224;-81
2023/03/25 00:17:53;;;;;;;24.80;8.47;;;;;;;;;;5113371;28;20487;-81
2023/03/25 00:20:22;;;;;;;32.00;8.60;;;;;;;;;;5113019;28;20301;-81
2023/03/25 00:22:50;;;;;;;13.70;5.63;;;;;;;;;;5112955;28;20193;-81
2023/03/25 00:25:20;;;;;;;21.57;4.67;;;;;;;;;;5112740;28;20265;-81
2023/03/25 00:27:49;;;;;;;21.80;6.10;;;;;;;;;;5112961;28;20253;-80
2023/03/25 00:30:19;;;;;;;9.27;3.00;;;;;;;;;;5113237;28;20197;-80
2023/03/25 00:32:51;;;;;;;23.23;5.77;;;;;;;;;;5112685;28;20307;-80
2023/03/25 00:35:20;;;;;;;26.20;7.40;;;;;;;;;;5112809;28;20289;-80
2023/03/25 00:37:51;;;;;;;21.43;6.43;;;;;;;;;;5112857;28;20198;-80
2023/03/25 00:40:21;;;;;;;18.67;6.63;;;;;;;;;;5112777;28;20201;-80
2023/03/25 00:42:49;;;;;;;12.23;3.93;;;;;;;;;;5112810;28;20271;-80
2023/03/25 00:45:17;;;;;;;16.50;5.77;;;;;;;;;;5112420;28;20308;-80
2023/03/25 00:47:46;;;;;;;13.27;3.47;;;;;;;;;;5112726;28;20265;-80
2023/03/25 00:50:14;;;;;;;17.43;5.00;;;;;;;;;;5112578;28;20258;-80
2023/03/25 00:52:43;;;;;;;27.07;6.43;;;;;;;;;;5112816;28;20284;-80
2023/03/25 00:55:11;;;;;;;12.67;4.03;;;;;;;;;;5112728;28;20222;-81
2023/03/25 00:57:41;;;;;;;20.50;5.87;;;;;;;;;;5112472;28;20202;-81
2023/03/25 01:00:11;;;;;;;18.87;5.70;;;;;;;;;;5112886;28;20225;-81
2023/03/25 01:02:39;;;;;;;27.13;7.33;;;;;;;;;;5112352;28;20213;-81
2023/03/25 01:05:09;;;;;;;17.10;5.70;;;;;;;;;;5112446;28;20215;-81
2023/03/25 01:07:38;;;;;;;26.93;7.27;;;;;;;;;;5112366;28;20213;-81
2023/03/25 01:10:07;;;;;;;18.80;4.40;;;;;;;;;;5112734;28;20246;-80
2023/03/25 01:12:35;;;;;;;9.13;4.20;;;;;;;;;;5112190;28;20223;-80
2023/03/25 01:15:05;;;;;;;16.67;4.23;;;;;;;;;;5112417;28;20266;-80
2023/03/25 01:17:34;;;;;;;22.77;5.90;;;;;;;;;;5112503;28;20223;-80
2023/03/25 01:20:04;;;;;;;18.70;6.90;;;;;;;;;;5112555;28;20196;-80
2023/03/25 01:22:33;;;;;;;25.50;14.00;;;;;;;;;;5112348;28;20240;-80
2023/03/25 01:25:01;;;;;;;14.97;6.37;;;;;;;;;;5111945;28;20278;-80
2023/03/25 01:27:30;;;;;;;24.10;7.00;;;;;;;;;;5112438;28;20197;-80
2023/03/25 01:29:58;;;;;;;9.93;3.47;;;;;;;;;;5112011;28;20213;-80
2023/03/25 01:32:29;;;;;;;25.03;5.70;;;;;;;;;;5112251;28;20206;-80
2023/03/25 01:34:57;;;;;;;17.90;6.27;;;;;;;;;;5113753;28;20208;-80
2023/03/25 01:37:26;;;;;;;23.57;5.10;;;;;;;;;;5116195;28;20195;-80
2023/03/25 01:39:54;;;;;;;32.63;6.97;;;;;;;;;;5116050;28;20296;-80
2023/03/25 01:42:22;;;;;;;19.00;5.67;;;;;;;;;;5115727;28;20285;-80
2023/03/25 01:45:10;;;;;;;24.50;10.00;;;;;;;;;;5115828;28;20250;-80
2023/03/25 01:47:40;;;;;;;13.83;4.43;;;;;;;;;;5115560;28;20210;-80
2023/03/25 01:50:13;;;;;;;23.67;6.33;;;;;;;;;;5116035;27;20199;-80
2023/03/25 01:52:43;;;;;;;27.83;6.03;;;;;;;;;;5116165;28;20220;-80
2023/03/25 01:55:12;;;;;;;18.23;6.27;;;;;;;;;;5116514;28;20493;-80
2023/03/25 01:57:42;;;;;;;19.43;6.00;;;;;;;;;;5115769;27;20236;-80
2023/03/25 02:00:11;;;;;;;11.13;3.53;;;;;;;;;;5115748;28;20225;-80
2023/03/25 02:02:42;;;;;;;34.43;6.33;;;;;;;;;;5115570;28;20284;-80
2023/03/25 02:05:12;;;;;;;7.13;3.43;;;;;;;;;;5115573;28;20223;-80
2023/03/25 02:07:45;;;;;;;18.53;4.70;;;;;;;;;;5115365;28;20198;-80
2023/03/25 02:10:14;;;;;;;24.77;6.00;;;;;;;;;;5115427;28;20209;-80
2023/03/25 02:12:44;;;;;;;11.63;3.03;;;;;;;;;;5115647;28;20247;-80
2023/03/25 02:15:14;;;;;;;17.33;5.50;;;;;;;;;;5115441;28;20201;-80
2023/03/25 02:17:50;;;;;;;16.07;4.27;;;;;;;;;;5115337;28;20205;-80
2023/03/25 02:20:37;;;;;;;29.27;7.97;;;;;;;;;;5115445;28;20237;-80
2023/03/25 02:23:15;;;;;;;48.27;11.37;;;;;;;;;;5115175;28;20215;-80
2023/03/25 02:26:02;;;;;;;13.87;6.03;;;;;;;;;;5115265;28;20266;-80
2023/03/25 02:28:35;;;;;;;14.73;5.30;;;;;;;;;;5114591;28;20195;-80
2023/03/25 02:31:12;;;;;;;19.57;5.50;;;;;;;;;;5115297;27;20201;-80
2023/03/25 02:33:55;;;;;;;29.00;7.13;;;;;;;;;;5115016;28;20197;-80
2023/03/25 02:36:38;;;;;;;20.67;6.57;;;;;;;;;;5112252;28;20328;-80
2023/03/25 02:39:12;;;;;;;24.03;6.30;;;;;;;;;;5114732;28;20202;-80
2023/03/25 02:41:41;;;;;;;20.43;6.17;;;;;;;;;;5115096;28;20206;-80
2023/03/25 02:44:14;;;;;;;20.17;5.70;;;;;;;;;;5114972;28;20241;-80
2023/03/25 02:46:46;;;;;;;18.53;5.90;;;;;;;;;;5113898;28;20214;-80
2023/03/25 02:49:19;;;;;;;27.77;7.43;;;;;;;;;;5114870;28;20214;-80
2023/03/25 02:51:50;;;;;;;24.90;7.23;;;;;;;;;;5114967;28;20201;-80
2023/03/25 02:54:20;;;;;;;30.47;8.23;;;;;;;;;;5114712;28;20288;-80
2023/03/25 02:56:56;;;;;;;21.50;5.50;;;;;;;;;;5114452;28;20227;-80
2023/03/25 02:59:31;;;;;;;19.23;7.43;;;;;;;;;;5114407;28;20215;-80
2023/03/25 03:02:01;;;;;;;31.33;7.20;;;;;;;;;;5114548;28;20198;-80
2023/03/25 03:04:29;;;;;;;19.37;5.70;;;;;;;;;;5114526;28;20216;-80
2023/03/25 03:06:58;;;;;;;21.17;6.20;;;;;;;;;;5113842;28;20246;-80
2023/03/25 03:09:31;;;;;;;22.03;6.37;;;;;;;;;;5114339;28;20229;-80
2023/03/25 03:12:18;;;;;;;17.10;5.53;;;;;;;;;;5114292;28;20232;-80
2023/03/25 03:14:56;;;;;;;17.87;6.00;;;;;;;;;;5114124;28;20211;-80
2023/03/25 03:17:28;;;;;;;28.63;8.67;;;;;;;;;;5114485;28;20197;-81
2023/03/25 03:19:58;;;;;;;18.73;6.63;;;;;;;;;;5114306;28;20228;-81
2023/03/25 03:22:40;;;;;;;21.97;7.00;;;;;;;;;;5113915;28;20217;-80
2023/03/25 03:25:16;;;;;;;33.57;7.93;;;;;;;;;;5113551;28;20237;-80
2023/03/25 03:27:47;;;;;;;18.37;5.63;;;;;;;;;;5113913;28;20229;-80
2023/03/25 03:30:19;;;;;;;19.63;5.67;;;;;;;;;;5113826;28;20202;-80
2023/03/25 03:32:52;;;;;;;32.57;8.77;;;;;;;;;;5114164;28;20202;-80
2023/03/25 03:35:23;;;;;;;16.50;5.87;;;;;;;;;;5113415;28;20198;-80
2023/03/25 03:37:55;;;;;;;58.83;7.40;;;;;;;;;;5113816;28;20212;-80
2023/03/25 03:40:25;;;;;;;12.03;4.07;;;;;;;;;;5113479;28;20237;-80
2023/03/25 03:42:55;;;;;;;20.47;6.93;;;;;;;;;;5114000;28;20236;-82
2023/03/25 03:45:28;;;;;;;15.93;3.83;;;;;;;;;;5113688;28;20234;-81
2023/03/25 03:47:58;;;;;;;23.23;5.07;;;;;;;;;;5113608;28;20234;-81
2023/03/25 03:50:28;;;;;;;30.47;6.67;;;;;;;;;;5113461;28;20326;-81
2023/03/25 03:53:01;;;;;;;37.93;9.63;;;;;;;;;;5113629;28;20241;-81
2023/03/25 03:55:36;;;;;;;30.30;9.90;;;;;;;;;;5113624;27;20199;-81
2023/03/25 03:58:08;;;;;;;24.03;5.97;;;;;;;;;;5112360;28;20213;-81
2023/03/25 04:00:38;;;;;;;19.27;6.27;;;;;;;;;;5113317;28;20234;-81
2023/03/25 04:03:13;;;;;;;27.70;5.73;;;;;;;;;;5113282;28;20212;-81
2023/03/25 04:05:44;;;;;;;18.37;5.10;;;;;;;;;;5113069;28;20222;-81
2023/03/25 04:08:14;;;;;;;27.30;7.70;;;;;;;;;;5113355;28;20206;-81
2023/03/25 04:10:51;;;;;;;29.33;8.80;;;;;;;;;;5112959;28;20251;-81
2023/03/25 04:13:20;;;;;;;29.07;8.97;;;;;;;;;;5112955;28;20238;-81
2023/03/25 04:15:49;;;;;;;15.60;5.67;;;;;;;;;;5112789;28;20236;-81
2023/03/25 04:18:22;;;;;;;40.90;10.17;;;;;;;;;;5113066;28;20196;-81
2023/03/25 04:20:50;;;;;;;3.90;3.20;;;;;;;;;;5112688;28;20257;-81
2023/03/25 04:23:20;;;;;;;20.70;8.80;;;;;;;;;;5112919;28;20241;-81
2023/03/25 04:25:51;;;;;;;13.20;4.77;;;;;;;;;;5112835;28;20349;-81
2023/03/25 04:28:22;;;;;;;18.37;7.27;;;;;;;;;;5112831;28;20196;-81
2023/03/25 04:30:54;;;;;;;32.63;8.17;;;;;;;;;;5112799;28;20200;-81
2023/03/25 04:33:23;;;;;;;25.30;6.70;;;;;;;;;;5113197;28;20204;-81
2023/03/25 04:35:51;;;;;;;13.27;4.37;;;;;;;;;;5112766;28;20295;-81
2023/03/25 04:38:21;;;;;;;13.33;5.27;;;;;;;;;;5112553;28;20227;-81
2023/03/25 04:40:51;;;;;;;15.27;3.53;;;;;;;;;;5112595;28;20289;-81
2023/03/25 04:43:19;;;;;;;12.60;6.23;;;;;;;;;;5112645;28;20228;-81
2023/03/25 04:45:52;;;;;;;6.93;2.23;;;;;;;;;;5112454;28;20201;-81
2023/03/25 04:48:24;;;;;;;11.80;4.20;;;;;;;;;;5112676;28;20254;-81
2023/03/25 04:50:54;;;;;;;12.27;3.50;;;;;;;;;;5112797;28;20218;-81
2023/03/25 04:53:23;;;;;;;10.20;5.30;;;;;;;;;;5112677;28;20198;-81
2023/03/25 04:55:53;;;;;;;18.03;3.93;;;;;;;;;;5112381;28;20229;-81
2023/03/25 04:58:21;;;;;;;31.93;5.83;;;;;;;;;;5112634;28;20228;-81
2023/03/25 05:00:51;;;;;;;16.23;3.90;;;;;;;;;;5112522;28;20207;-81
2023/03/25 05:03:22;;;;;;;15.23;4.43;;;;;;;;;;5112616;28;20213;-81
2023/03/25 05:05:51;;;;;;;14.10;5.07;;;;;;;;;;5112708;28;20226;-81
2023/03/25 05:08:21;;;;;;;15.83;5.63;;;;;;;;;;5112705;28;20205;-81
2023/03/25 05:10:49;;;;;;;24.30;8.83;;;;;;;;;;5115146;28;20311;-81
2023/03/25 05:13:19;;;;;;;18.83;4.57;;;;;;;;;;5116569;28;20201;-81
2023/03/25 05:15:48;;;;;;;25.60;5.43;;;;;;;;;;5116611;28;20198;-81
2023/03/25 05:18:17;;;;;;;20.43;7.43;;;;;;;;;;5116486;28;20288;-81
2023/03/25 05:20:49;;;;;;;29.53;6.30;;;;;;;;;;5116990;28;20205;-81
2023/03/25 05:23:18;;;;;;;23.43;5.27;;;;;;;;;;5116229;28;20257;-81
2023/03/25 05:25:47;;;;;;;15.50;5.47;;;;;;;;;;5116079;28;20247;-81
2023/03/25 05:28:16;;;;;;;13.27;4.03;;;;;;;;;;5116243;27;20223;-81
2023/03/25 05:30:47;;;;;;;17.70;6.63;;;;;;;;;;5116066;28;20361;-81
2023/03/25 05:33:16;;;;;;;12.87;6.17;;;;;;;;;;5116314;28;20225;-81
2023/03/25 05:35:45;;;;;;;12.73;3.80;;;;;;;;;;5116423;28;20406;-81
2023/03/25 05:38:17;;;;;;;7.40;1.87;;;;;;;;;;5115692;28;20192;-81
2023/03/25 05:40:46;;;;;;;25.20;5.63;;;;;;;;;;5116120;28;20245;-81
2023/03/25 05:43:15;;;;;;;16.73;4.70;;;;;;;;;;5116107;28;20203;-81
2023/03/25 05:45:45;;;;;;;13.23;4.70;;;;;;;;;;5116171;28;20221;-81
2023/03/25 05:48:15;;;;;;;12.23;4.00;;;;;;;;;;5115840;28;20215;-81
2023/03/25 05:50:44;;;;;;;20.57;4.20;;;;;;;;;;5115726;28;20208;-81
2023/03/25 05:53:14;;;;;;;17.73;4.40;;;;;;;;;;5115751;28;20297;-81
2023/03/25 05:55:42;;;;;;;10.30;2.63;;;;;;;;;;5115686;28;20230;-81
2023/03/25 05:58:11;;;;;;;15.20;5.33;;;;;;;;;;5115606;28;20239;-81
2023/03/25 06:00:39;;;;;;;15.13;5.30;;;;;;;;;;5116072;28;20201;-81
2023/03/25 06:03:09;;;;;;;19.83;5.77;;;;;;;;;;5115232;28;20194;-81
2023/03/25 06:05:41;;;;;;;18.13;3.73;;;;;;;;;;5115522;28;20222;-81
2023/03/25 06:08:10;;;;;;;7.73;4.13;;;;;;;;;;5115594;28;20249;-81
2023/03/25 06:10:38;;;;;;;24.17;6.13;;;;;;;;;;5115578;28;20234;-81
2023/03/25 06:13:06;;;;;;;10.13;2.43;;;;;;;;;;5115701;28;20198;-81
2023/03/25 06:15:38;;;;;;;20.37;4.27;;;;;;;;;;5115651;28;20206;-81
2023/03/25 06:18:09;;;;;;;14.87;4.40;;;;;;;;;;5115070;28;20204;-81
2023/03/25 06:20:37;;;;;;;19.00;5.17;;;;;;;;;;5115114;28;20193;-81
2023/03/25 06:23:08;;;;;;;16.53;3.77;;;;;;;;;;5114831;28;20193;-81
2023/03/25 06:25:37;;;;;;;14.33;2.97;;;;;;;;;;5115276;28;20297;-81
2023/03/25 06:28:05;;;;;;;10.97;4.10;;;;;;;;;;5114968;28;20232;-81
2023/03/25 06:30:34;;;;;;;6.30;3.53;;;;;;;;;;5114882;28;20207;-81
2023/03/25 06:33:04;;;;;;;17.03;4.47;;;;;;;;;;5115204;28;20202;-81
2023/03/25 06:35:33;;;;;;;24.70;6.33;;;;;;;;;;5114686;28;20191;-81
2023/03/25 06:38:02;;;;;;;7.70;3.63;;;;;;;;;;5114667;28;20201;-81
2023/03/25 06:40:33;;;;;;;10.53;3.33;;;;;;;;;;5115125;28;20250;-81
2023/03/25 06:43:02;;;;;;;10.47;3.80;;;;;;;;;;5114911;28;20203;-81
2023/03/25 06:45:30;;;;;;;6.73;2.53;;;;;;;;;;5114656;28;20241;-81
2023/03/25 06:47:59;;;;;;;11.00;3.50;;;;;;;;;;5114618;28;20247;-81
2023/03/25 06:50:27;;;;;;;14.63;3.93;;;;;;;;;;5114866;28;20208;-81
2023/03/25 06:52:55;;;;;;;8.13;3.53;;;;;;;;;;5114537;28;20197;-81
2023/03/25 06:55:24;;;;;;;18.77;4.17;;;;;;;;;;5114995;28;20225;-81
2023/03/25 06:57:56;;;;;;;12.93;3.33;;;;;;;;;;5114588;28;20194;-81
2023/03/25 07:00:25;;;;;;;4.80;2.87;;;;;;;;;;5114494;28;20198;-81
2023/03/25 07:02:57;;;;;;;16.23;4.77;;;;;;;;;;5106170;28;20202;-82
2023/03/25 07:05:25;;;;;;;19.60;4.37;;;;;;;;;;5095958;28;20223;-82
2023/03/25 07:07:54;;;;;;;11.20;3.27;;;;;;;;;;5109322;28;20311;-81
2023/03/25 07:10:22;;;;;;;11.07;4.20;;;;;;;;;;5093942;28;20268;-81
2023/03/25 07:12:52;;;;;;;15.47;4.03;;;;;;;;;;5094310;28;20194;-81
2023/03/25 07:15:22;;;;;;;15.77;4.50;;;;;;;;;;5093925;28;20249;-81
2023/03/25 07:17:51;;;;;;;13.73;4.23;;;;;;;;;;5093712;28;20200;-81
2023/03/25 07:20:19;;;;;;;7.47;4.13;;;;;;;;;;5094007;28;20199;-81
2023/03/25 07:22:48;;;;;;;15.93;6.60;;;;;;;;;;5093909;28;20229;-81
2023/03/25 07:25:16;;;;;;;8.87;4.20;;;;;;;;;;5093552;28;20230;-81
2023/03/25 07:27:45;;;;;;;14.97;4.57;;;;;;;;;;5093492;28;20318;-81
2023/03/25 07:30:13;;;;;;;23.30;3.87;;;;;;;;;;5093832;28;20199;-81
2023/03/25 07:32:44;;;;;;;20.57;4.77;;;;;;;;;;5093867;28;20208;-81
2023/03/25 07:35:12;;;;;;;10.27;4.40;;;;;;;;;;5093576;28;20207;-81
2023/03/25 07:37:41;;;;;;;18.70;4.20;;;;;;;;;;5093472;28;20226;-81
2023/03/25 07:40:09;;;;;;;12.47;5.40;;;;;;;;;;5093636;28;20247;-81
2023/03/25 07:42:38;;;;;;;15.53;3.97;;;;;;;;;;5093743;28;20249;-81
2023/03/25 07:45:07;;;;;;;16.33;5.67;;;;;;;;;;5093692;28;20302;-81
2023/03/25 07:47:35;;;;;;;14.63;5.50;;;;;;;;;;5093284;28;20206;-80
2023/03/25 07:50:05;;;;;;;24.53;5.93;;;;;;;;;;5093414;28;20241;-81
2023/03/25 07:52:34;;;;;;;15.13;5.30;;;;;;;;;;5093240;28;20231;-81
2023/03/25 07:55:03;;;;;;;11.87;4.17;;;;;;;;;;5093472;28;20203;-81
2023/03/25 07:57:32;;;;;;;9.43;5.50;;;;;;;;;;5092944;28;20200;-81
2023/03/25 08:00:00;;;;;;;13.00;7.07;;;;;;;;;;5093183;28;20201;-81
2023/03/25 08:02:28;;;;;;;17.90;4.10;;;;;;;;;;5093059;28;20203;-81
2023/03/25 08:04:57;;;;;;;14.30;3.80;;;;;;;;;;5092820;28;20207;-81
2023/03/25 08:07:27;;;;;;;10.27;3.97;;;;;;;;;;5093018;28;20272;-81
2023/03/25 08:09:56;;;;;;;13.13;6.13;;;;;;;;;;5092613;28;20221;-81
2023/03/25 08:12:24;;;;;;;7.03;2.60;;;;;;;;;;5092783;28;20207;-81
2023/03/25 08:14:52;;;;;;;13.53;4.17;;;;;;;;;;5092751;28;20229;-81
2023/03/25 08:17:21;;;;;;;13.83;3.47;;;;;;;;;;5092724;28;20222;-81
2023/03/25 08:19:49;;;;;;;20.13;5.13;;;;;;;;;;5093050;28;20203;-81
2023/03/25 08:22:18;;;;;;;11.83;3.50;;;;;;;;;;5092854;28;20201;-81
2023/03/25 08:24:47;;;;;;;11.20;2.63;;;;;;;;;;5092251;28;20326;-81
2023/03/25 08:27:16;;;;;;;11.83;3.73;;;;;;;;;;5092724;28;20218;-81
2023/03/25 08:29:46;;;;;;;7.53;2.87;;;;;;;;;;5092509;28;20243;-81
2023/03/25 08:32:14;;;;;;;9.67;3.87;;;;;;;;;;5092631;28;20197;-81
2023/03/25 08:34:42;;;;;;;8.77;3.13;;;;;;;;;;5092123;28;20216;-81
2023/03/25 08:37:11;;;;;;;14.43;5.33;;;;;;;;;;5092608;28;20227;-81
2023/03/25 08:39:41;;;;;;;17.17;4.70;;;;;;;;;;5092737;28;20200;-81
2023/03/25 08:42:10;;;;;;;13.43;3.77;;;;;;;;;;5092365;28;20300;-81
2023/03/25 08:44:39;;;;;;;11.27;3.63;;;;;;;;;;5091950;28;20224;-81
2023/03/25 08:47:07;;;;;;;12.70;2.63;;;;;;;;;;5092595;28;20207;-81
2023/03/25 08:49:36;;;;;;;5.80;2.63;;;;;;;;;;5092331;28;20203;-81
2023/03/25 08:52:07;;;;;;;17.87;5.37;;;;;;;;;;5092794;28;20231;-81
2023/03/25 08:54:36;;;;;;;5.17;3.03;;;;;;;;;;5092316;28;20252;-81
2023/03/25 08:57:06;;;;;;;12.83;3.53;;;;;;;;;;5092352;28;20221;-81
2023/03/25 08:59:36;;;;;;;5.10;3.07;;;;;;;;;;5092307;28;20200;-81
2023/03/25 09:02:04;;;;;;;12.93;3.83;;;;;;;;;;5092251;28;20203;-80
2023/03/25 09:04:33;;;;;;;8.90;3.47;;;;;;;;;;5092102;28;20200;-81
2023/03/25 09:07:01;;;;;;;11.17;3.80;;;;;;;;;;5092265;28;20254;-81
2023/03/25 09:09:39;;;;;;;11.03;3.43;;;;;;;;;;5091891;28;20243;-81
2023/03/25 09:12:08;;;;;;;19.00;5.03;;;;;;;;;;5092162;28;20222;-81
2023/03/25 09:14:38;;;;;;;12.57;3.23;;;;;;;;;;5092093;28;20215;-82
2023/03/25 09:17:06;;;;;;;7.77;2.03;;;;;;;;;;5092231;28;20193;-83
2023/03/25 09:19:36;;;;;;;13.27;4.13;;;;;;;;;;5091934;28;20204;-83
2023/03/25 09:22:05;;;;;;;13.23;2.27;;;;;;;;;;5092224;28;20196;-83
2023/03/25 09:24:34;;;;;;;12.20;4.07;;;;;;;;;;5091800;28;20255;-83
2023/03/25 09:27:03;;;;;;;14.57;3.57;;;;;;;;;;5092245;28;20214;-83
2023/03/25 09:29:31;;;;;;;15.70;5.03;;;;;;;;;;5091831;28;20224;-83
2023/03/25 09:32:01;;;;;;;10.50;5.27;;;;;;;;;;5091657;28;20205;-83
2023/03/25 09:34:30;;;;;;;16.67;3.97;;;;;;;;;;5091773;28;20296;-83
2023/03/25 09:36:58;;;;;;;8.73;3.40;;;;;;;;;;5092041;28;20251;-83
2023/03/25 09:39:27;;;;;;;13.00;4.20;;;;;;;;;;5092164;28;20246;-83
2023/03/25 09:42:02;;;;;;;14.23;3.97;;;;;;;;;;5091873;28;20246;-83
2023/03/25 09:44:37;;;;;;;7.40;2.97;;;;;;;;;;5092038;28;20228;-84
2023/03/25 09:47:10;;;;;;;15.37;5.03;;;;;;;;;;5091490;28;20204;-83
2023/03/25 09:49:44;;;;;;;12.70;4.60;;;;;;;;;;5091670;28;20268;-83
2023/03/25 09:52:16;;;;;;;12.10;4.23;;;;;;;;;;5091659;28;20197;-83
2023/03/25 09:54:47;;;;;;;19.40;5.20;;;;;;;;;;5091566;28;20204;-83
2023/03/25 09:57:21;;;;;;;11.83;5.60;;;;;;;;;;5093172;28;20197;-83
2023/03/25 09:59:51;;;;;;;13.90;4.27;;;;;;;;;;5095233;28;20197;-83
2023/03/25 10:02:28;;;;;;;13.37;4.03;;;;;;;;;;5095324;28;20234;-83
2023/03/25 10:05:14;;;;;;;13.17;3.90;;;;;;;;;;5095269;28;20228;-83
2023/03/25 10:07:51;;;;;;;16.33;5.30;;;;;;;;;;5095014;28;20215;-83
2023/03/25 10:10:26;;;;;;;18.33;4.90;;;;;;;;;;5094987;28;20248;-83
2023/03/25 10:12:58;;;;;;;9.70;3.60;;;;;;;;;;5094940;28;20215;-83
2023/03/25 10:15:31;;;;;;;9.73;4.17;;;;;;;;;;5094596;28;20189;-83
2023/03/25 10:18:05;;;;;;;13.70;4.63;;;;;;;;;;5095255;28;20216;-83
2023/03/25 10:20:40;;;;;;;23.77;4.93;;;;;;;;;;5094653;28;20245;-83
2023/03/25 10:23:14;;;;;;;16.80;4.97;;;;;;;;;;5094739;28;20277;-83
2023/03/25 10:25:45;;;;;;;17.60;4.90;;;;;;;;;;5094454;28;20224;-83
2023/03/25 10:28:17;;;;;;;10.50;3.23;;;;;;;;;;5094817;28;20388;-83
2023/03/25 10:30:47;;;;;;;13.13;3.97;;;;;;;;;;5094753;28;20216;-83
2023/03/25 10:33:22;;;;;;;13.23;4.97;;;;;;;;;;5095091;28;20302;-83
2023/03/25 10:35:50;;;;;;;10.27;2.90;;;;;;;;;;5095008;28;20208;-83
2023/03/25 10:38:22;;;;;;;14.87;4.23;;;;;;;;;;5094644;28;20208;-83
2023/03/25 10:40:52;;;;;;;16.27;4.17;;;;;;;;;;5094419;28;20199;-83
2023/03/25 10:43:25;;;;;;;14.67;3.87;;;;;;;;;;5094266;28;20275;-83
2023/03/25 10:45:56;;;;;;;11.63;5.93;;;;;;;;;;5094334;28;20185;-83
2023/03/25 10:48:26;;;;;;;12.50;2.73;;;;;;;;;;5094596;28;20208;-83
2023/03/25 10:51:05;;;;;;;12.37;4.70;;;;;;;;;;5094434;28;20213;-83
2023/03/25 10:53:33;;;;;;;10.07;4.37;;;;;;;;;;5094404;28;20197;-83
2023/03/25 10:56:03;;;;;;;18.17;4.67;;;;;;;;;;5094339;28;20264;-83
2023/03/25 10:58:32;;;;;;;15.37;4.63;;;;;;;;;;5094544;28;20265;-83
2023/03/25 11:01:01;;;;;;;18.00;4.83;;;;;;;;;;5094093;28;20196;-83
2023/03/25 11:03:33;;;;;;;15.37;4.03;;;;;;;;;;5093840;28;20211;-83
2023/03/25 11:06:02;;;;;;;15.07;4.40;;;;;;;;;;5093914;28;20228;-83
2023/03/25 11:08:31;;;;;;;18.07;4.83;;;;;;;;;;5093292;28;20291;-83
2023/03/25 11:11:00;;;;;;;10.93;4.80;;;;;;;;;;5093883;28;20221;-82
2023/03/25 11:13:31;;;;;;;9.67;3.83;;;;;;;;;;5093827;28;20197;-83
2023/03/25 11:16:02;;;;;;;21.30;5.30;;;;;;;;;;5094168;28;20205;-83
2023/03/25 11:18:35;;;;;;;16.77;5.30;;;;;;;;;;5093987;28;20205;-83
2023/03/25 11:21:08;;;;;;;9.37;4.03;;;;;;;;;;5093620;28;20188;-83
2023/03/25 11:23:37;;;;;;;10.40;5.03;;;;;;;;;;5093911;28;20201;-83
2023/03/25 11:26:07;;;;;;;11.73;4.20;;;;;;;;;;5093081;28;20232;-83
2023/03/25 11:28:38;;;;;;;14.20;6.57;;;;;;;;;;5093290;28;20226;-83
2023/03/25 11:31:11;;;;;;;18.43;5.20;;;;;;;;;;5093588;28;20259;-83
2023/03/25 11:33:41;;;;;;;16.60;3.37;;;;;;;;;;5093497;28;20193;-83
2023/03/25 11:36:20;;;;;;;15.57;4.67;;;;;;;;;;5093209;28;20199;-82
2023/03/25 11:38:53;;;;;;;8.07;4.13;;;;;;;;;;5093183;28;20300;-83
2023/03/25 11:41:21;;;;;;;10.87;4.13;;;;;;;;;;5093138;28;20197;-83
2023/03/25 11:43:49;;;;;;;14.73;3.73;;;;;;;;;;5093348;28;20208;-83
2023/03/25 11:46:19;;;;;;;10.30;5.03;;;;;;;;;;5093368;28;20205;-84
2023/03/25 11:48:50;;;;;;;9.47;4.00;;;;;;;;;;5093521;28;20229;-83
2023/03/25 11:51:20;;;;;;;6.27;3.33;;;;;;;;;;5092883;28;20227;-83
2023/03/25 11:53:50;;;;;;;9.90;2.53;;;;;;;;;;5093038;28;20240;-83
2023/03/25 11:56:22;;;;;;;16.27;4.27;;;;;;;;;;5093017;28;20197;-83
2023/03/25 11:58:51;;;;;;;14.67;3.87;;;;;;;;;;5092895;28;20201;-83
2023/03/25 12:01:26;;;;;;;15.30;4.13;;;;;;;;;;5093109;28;20201;-83
2023/03/25 12:04:08;;;;;;;10.40;2.13;;;;;;;;;;5092869;28;20200;-83
2023/03/25 12:06:36;;;;;;;12.27;4.63;;;;;;;;;;5092429;28;20236;-83
2023/03/25 12:09:08;;;;;;;16.30;4.23;;;;;;;;;;5092505;28;20243;-83
2023/03/25 12:11:40;;;;;;;23.33;4.03;;;;;;;;;;5093094;28;20219;-83
2023/03/25 12:14:21;;;;;;;11.73;3.87;;;;;;;;;;5092688;28;20222;-83
2023/03/25 12:16:55;;;;;;;12.40;4.57;;;;;;;;;;5092871;28;20209;-83
2023/03/25 12:19:30;;;;;;;18.03;5.77;;;;;;;;;;5092082;28;20227;-83
2023/03/25 12:22:05;;;;;;;9.13;3.40;;;;;;;;;;5092762;28;20250;-83
2023/03/25 12:24:41;;;;;;;23.83;7.73;;;;;;;;;;5092466;28;20258;-83
2023/03/25 12:27:13;;;;;;;13.80;4.23;;;;;;;;;;5092717;28;20235;-83
2023/03/25 12:29:47;;;;;;;13.90;5.20;;;;;;;;;;5092525;28;20197;-83
2023/03/25 12:32:21;;;;;;;11.17;4.03;;;;;;;;;;5092268;28;20260;-83
2023/03/25 12:34:56;;;;;;;14.73;6.40;;;;;;;;;;5092579;28;20200;-83
2023/03/25 12:37:31;;;;;;;9.90;3.87;;;;;;;;;;5092339;28;20329;-83
2023/03/25 12:40:21;;;;;;;13.40;4.57;;;;;;;;;;5092570;28;20203;-83
2023/03/25 12:42:54;;;;;;;14.10;3.13;;;;;;;;;;5092476;28;20614;-83
2023/03/25 12:45:33;;;;;;;6.60;2.97;;;;;;;;;;5092755;28;20268;-83
2023/03/25 12:48:05;;;;;;;9.30;3.90;;;;;;;;;;5092208;28;20201;-83
2023/03/25 12:50:38;;;;;;;10.73;1.20;;;;;;;;;;5092309;28;20217;-83
2023/03/25 12:53:15;;;;;;;8.83;3.80;;;;;;;;;;5092512;28;20205;-83
2023/03/25 12:55:50;;;;;;;5.70;2.80;;;;;;;;;;5092154;28;20289;-83
2023/03/25 12:58:33;;;;;;;16.63;5.47;;;;;;;;;;5092011;28;20192;-83
2023/03/25 13:01:05;;;;;;;13.40;3.60;;;;;;;;;;5092309;28;20308;-83
2023/03/25 13:03:38;;;;;;;12.30;3.23;;;;;;;;;;5092170;28;20200;-83
2023/03/25 13:06:14;;;;;;;9.53;2.70;;;;;;;;;;5092160;28;20232;-83
2023/03/25 13:08:45;;;;;;;13.73;3.43;;;;;;;;;;5092046;28;20214;-83
2023/03/25 13:11:16;;;;;;;4.70;3.70;;;;;;;;;;5091959;28;20221;-83
2023/03/25 13:13:46;;;;;;;12.30;2.77;;;;;;;;;;5092064;28;20220;-83
2023/03/25 13:16:17;;;;;;;12.53;3.83;;;;;;;;;;5092501;28;20239;-83
2023/03/25 13:18:47;;;;;;;9.97;3.70;;;;;;;;;;5092163;28;20200;-83
2023/03/25 13:21:19;;;;;;;13.53;5.33;;;;;;;;;;5092091;28;20197;-83
2023/03/25 13:23:49;;;;;;;10.93;3.80;;;;;;;;;;5092130;28;20201;-83
2023/03/25 13:26:21;;;;;;;7.17;2.77;;;;;;;;;;5092303;28;20277;-83
2023/03/25 13:28:55;;;;;;;10.07;3.07;;;;;;;;;;5091666;28;20265;-83
2023/03/25 13:31:26;;;;;;;14.20;3.77;;;;;;;;;;5093983;28;20217;-83
2023/03/25 13:33:57;;;;;;;17.53;4.77;;;;;;;;;;5095837;28;20192;-83
2023/03/25 13:36:29;;;;;;;11.87;3.53;;;;;;;;;;5096083;28;20197;-83
2023/03/25 13:38:59;;;;;;;8.40;3.13;;;;;;;;;;5095568;28;20209;-83
2023/03/25 13:41:31;;;;;;;18.50;5.37;;;;;;;;;;5095656;28;20225;-83
2023/03/25 13:44:03;;;;;;;10.47;3.33;;;;;;;;;;5095801;28;20246;-83
2023/03/25 13:46:35;;;;;;;11.97;3.10;;;;;;;;;;5095618;28;20232;-83
2023/03/25 13:49:06;;;;;;;11.17;3.70;;;;;;;;;;5095546;28;20196;-83
2023/03/25 13:51:36;;;;;;;7.23;3.13;;;;;;;;;;5095368;28;20221;-83
2023/03/25 13:54:07;;;;;;;12.97;4.53;;;;;;;;;;5095353;28;20228;-83
2023/03/25 13:56:59;;;;;;;16.90;5.90;;;;;;;;;;5095636;28;20205;-83
2023/03/25 13:59:57;;;;;;;13.70;5.63;;;;;;;;;;5095516;28;20197;-83
2023/03/25 14:02:35;;;;;;;20.13;7.90;;;;;;;;;;5012818;28;20283;-83
2023/03/25 14:05:31;;;;;;;12.43;5.03;;;;;;;;;;5081784;28;20241;-83
2023/03/25 14:08:10;;;;;;;17.40;5.87;;;;;;;;;;5095236;28;20277;-84
2023/03/25 14:10:40;;;;;;;13.60;4.73;;;;;;;;;;5095057;28;20201;-84
2023/03/25 14:13:11;;;;;;;17.10;4.27;;;;;;;;;;5095070;28;20253;-84
2023/03/25 14:15:41;;;;;;;5.23;2.57;;;;;;;;;;5094901;28;20190;-85
2023/03/25 14:18:16;;;;;;;0.70;0.70;;;;;;;;;;5095544;28;20199;-85
2023/03/25 14:20:45;;;;;;;0.70;0.70;;;;;;;;;;5095259;28;20228;-84
2023/03/25 14:23:18;;;;;;;0.70;0.70;;;;;;;;;;5094764;28;20198;-85
2023/03/25 14:25:48;;;;;;;12.47;3.67;;;;;;;;;;5094306;28;20272;-84
2023/03/25 14:28:18;;;;;;;13.10;3.00;;;;;;;;;;5095572;28;20288;-86
2023/03/25 14:31:06;;;;;;;9.10;3.33;;;;;;;;;;5095024;28;20233;-85
2023/03/25 14:33:49;;;;;;;3.70;2.13;;;;;;;;;;5095523;28;20212;-86
2023/03/25 14:36:18;;;;;;;8.97;3.63;;;;;;;;;;5094200;28;20204;-85
2023/03/25 14:38:55;;;;;;;9.10;2.20;;;;;;;;;;5094948;28;20309;-86
2023/03/25 14:41:41;;;;;;;6.40;2.40;;;;;;;;;;5095222;28;20203;-85
2023/03/25 14:44:19;;;;;;;9.20;2.70;;;;;;;;;;5093728;28;20427;-86
2023/03/25 14:46:48;;;;;;;10.57;1.80;;;;;;;;;;5094555;28;20235;-85
2023/03/25 14:49:21;;;;;;;11.83;3.27;;;;;;;;;;5094873;28;20198;-86
2023/03/25 14:51:51;;;;;;;13.33;3.17;;;;;;;;;;5094434;28;20374;-85
2023/03/25 14:54:21;;;;;;;7.43;3.37;;;;;;;;;;5094452;28;20306;-85